Terminal Aerodrome Forecast
Issued by NWS

Home | Current Version | Previous Version | Text Only | Print | Product List | Glossary On
Versions: 1 2 3 4 5 6 7 8 9 10 11 12 13 14 15 16 17 18 19 20 21 22 23 24 25 26
000
FTUS45 KREV 220520
TAFTRK
TAF
KTRK 220520Z 2206/2306 VRB03KT P6SM SCT050
     FM221200 20008G16KT 5SM -SN SCT010 OVC018
     FM221400 22006KT 1SM -SN SCT006 BKN010
     FM221700 26009KT 3SM -SHSN FEW008 BKN020=

USA.gov is the U.S. government's official web portal to all federal, state and local government web resources and services.